Time;durP1;ratioP1;P1;durP2;ratioP2;P2;SDS_P1;SDS_P2;PMS_P1;PMS_P2;Temp;Humidity;BMP_temperature;BMP_pressure;BME280_temperature;BME280_humidity;BME280_pressure;Samples;Min_cycle;Max_cycle;Signal;HPM_P1;HPM_P2
2022/06/30 00:01:44;;;;;;;6.10;4.22;;;;;;;17.78;100.00;100770.45;1680779;85;20871;-43
2022/06/30 00:04:11;;;;;;;12.75;4.00;;;;;;;17.75;100.00;100775.34;1758330;81;20942;-43
2022/06/30 00:06:39;;;;;;;8.53;4.03;;;;;;;17.72;100.00;100768.94;1680725;84;21934;-43
2022/06/30 00:09:05;;;;;;;14.50;6.17;;;;;;;17.72;100.00;100754.54;1758269;81;20980;-44
2022/06/30 00:11:33;;;;;;;21.00;6.87;;;;;;;17.73;100.00;100730.06;1688972;84;21511;-44
2022/06/30 00:13:59;;;;;;;17.30;6.17;;;;;;;17.71;100.00;100714.88;1720001;83;20956;-44
2022/06/30 00:16:26;;;;;;;23.22;6.00;;;;;;;17.71;100.00;100713.58;1698791;84;20901;-43
2022/06/30 00:18:52;;;;;;;9.15;5.22;;;;;;;17.70;100.00;100716.28;1720089;83;21292;-44
2022/06/30 00:21:20;;;;;;;8.73;5.10;;;;;;;17.69;100.00;100706.25;1691261;84;20948;-44
2022/06/30 00:26:03;;;;;;;10.03;6.00;;;;;;;17.74;100.00;100704.27;1816371;79;22486;-43
2022/06/30 00:28:30;;;;;;;18.23;6.35;;;;;;;17.71;100.00;100705.72;1789332;80;20936;-43
2022/06/30 00:30:57;;;;;;;10.32;6.37;;;;;;;17.73;100.00;100706.50;1788985;80;21175;-43
2022/06/30 00:33:24;;;;;;;8.38;5.87;;;;;;;17.75;100.00;100702.52;1789354;80;20845;-43
2022/06/30 00:35:51;;;;;;;12.90;6.20;;;;;;;17.78;100.00;100712.85;1789334;80;20932;-43
2022/06/30 00:38:18;;;;;;;9.70;6.10;;;;;;;17.78;100.00;100716.30;1789211;80;21454;-43
2022/06/30 00:40:45;;;;;;;13.50;5.75;;;;;;;17.80;100.00;100711.84;1789427;80;20896;-43
2022/06/30 00:43:12;;;;;;;20.12;7.50;;;;;;;17.80;100.00;100705.30;1773542;80;21042;-44
2022/06/30 00:45:41;;;;;;;12.88;6.72;;;;;;;17.81;100.00;100704.86;1789326;80;20979;-43
2022/06/30 00:48:09;;;;;;;16.80;7.72;;;;;;;17.79;100.00;100704.91;1789266;80;20971;-43
2022/06/30 00:50:37;;;;;;;13.32;7.17;;;;;;;17.80;100.00;100704.47;1789311;80;20896;-43
2022/06/30 00:53:05;;;;;;;25.02;8.65;;;;;;;17.79;100.00;100706.22;1789618;80;21422;-43
2022/06/30 00:55:32;;;;;;;25.17;10.78;;;;;;;17.80;100.00;100705.30;1789381;80;21154;-43
2022/06/30 00:58:04;;;;;;;21.10;11.60;;;;;;;17.81;100.00;100708.34;1789148;80;20924;-43
2022/06/30 01:00:36;;;;;;;22.70;12.88;;;;;;;17.81;100.00;100708.34;1789250;80;21484;-44
2022/06/30 01:03:04;;;;;;;24.98;11.18;;;;;;;17.84;100.00;100714.36;1788891;79;20885;-43
2022/06/30 01:05:30;;;;;;;16.52;9.25;;;;;;;17.85;100.00;100721.29;1789286;80;20927;-44
2022/06/30 01:07:57;;;;;;;20.05;7.90;;;;;;;17.85;100.00;100730.45;1763638;80;21143;-43
2022/06/30 01:13:09;;;;;;;16.20;9.48;;;;;;;17.84;100.00;100736.61;1760633;81;20920;-43
2022/06/30 01:15:36;;;;;;;18.27;10.70;;;;;;;17.87;100.00;100738.61;1760555;81;20944;-43
2022/06/30 01:18:03;;;;;;;29.32;11.85;;;;;;;17.89;100.00;100738.08;1760653;81;20984;-42
2022/06/30 01:20:32;;;;;;;26.42;12.70;;;;;;;17.92;100.00;100738.42;1760396;80;21089;-42
2022/06/30 01:23:02;;;;;;;27.40;14.35;;;;;;;17.92;100.00;100747.11;1760724;81;21387;-42
2022/06/30 01:25:29;;;;;;;26.40;14.98;;;;;;;17.92;100.00;100741.87;1753538;80;21402;-43
2022/06/30 01:27:55;;;;;;;46.23;21.60;;;;;;;17.92;100.00;100745.80;1749893;81;21026;-43
2022/06/30 01:30:22;;;;;;;38.23;21.95;;;;;;;17.92;100.00;100739.73;1750139;81;20837;-43
2022/06/30 01:32:49;;;;;;;26.42;15.20;;;;;;;17.91;100.00;100732.79;1750126;82;21152;-42
2022/06/30 01:35:16;;;;;;;62.98;12.25;;;;;;;17.91;100.00;100740.64;1749773;81;20964;-42
2022/06/30 01:37:51;;;;;;;13.68;7.92;;;;;;;17.89;100.00;100732.84;1749559;82;20873;-43
2022/06/30 01:40:18;;;;;;;13.10;8.15;;;;;;;17.89;100.00;100735.46;1749752;81;20905;-42
2022/06/30 01:42:45;;;;;;;12.98;8.43;;;;;;;17.88;100.00;100737.69;1722418;82;21958;-42
2022/06/30 01:45:12;;;;;;;13.93;8.43;;;;;;;17.86;100.00;100742.15;1749441;82;22144;-43
2022/06/30 01:47:39;;;;;;;12.23;8.00;;;;;;;17.84;100.00;100748.39;1749277;82;21541;-43
2022/06/30 01:50:10;;;;;;;13.80;7.37;;;;;;;17.79;100.00;100746.80;1749534;82;21010;-42
2022/06/30 01:52:36;;;;;;;7.55;5.37;;;;;;;17.78;100.00;100746.41;1749744;81;20971;-43
2022/06/30 01:55:06;;;;;;;17.85;5.50;;;;;;;17.76;100.00;100740.88;1749644;82;20929;-43
2022/06/30 01:57:35;;;;;;;11.68;5.67;;;;;;;17.74;100.00;100743.54;1749857;82;21201;-43
2022/06/30 02:00:04;;;;;;;8.30;5.65;;;;;;;17.74;100.00;100753.18;1749696;81;20948;-43
2022/06/30 02:02:31;;;;;;;7.05;5.67;;;;;;;17.73;100.00;100756.23;1722265;82;20932;-44
2022/06/30 02:04:58;;;;;;;8.18;5.37;;;;;;;17.74;100.00;100751.39;1749324;82;20936;-43
2022/06/30 02:07:26;;;;;;;11.48;5.40;;;;;;;17.74;100.00;100755.32;1749532;82;20945;-43
2022/06/30 02:09:52;;;;;;;8.48;5.30;;;;;;;17.74;100.00;100756.63;1749491;82;22059;-43
2022/06/30 02:15:06;;;;;;;;;;;;;;;17.78;100.00;100745.10;1752246;82;20932;-44
2022/06/30 02:17:33;;;;;;;9.58;4.72;;;;;;;17.78;100.00;100758.19;1749361;81;20423;-44
2022/06/30 02:20:00;;;;;;;8.25;4.80;;;;;;;17.78;100.00;100745.10;1749345;82;20968;-44
2022/06/30 02:22:27;;;;;;;5.70;5.17;;;;;;;17.78;100.00;100744.27;1749445;81;21086;-44
2022/06/30 02:24:54;;;;;;;6.90;4.85;;;;;;;17.77;100.00;100742.09;1749501;80;20897;-44
2022/06/30 02:27:23;;;;;;;6.45;4.90;;;;;;;17.75;100.00;100741.31;1749382;82;21019;-44
2022/06/30 02:29:53;;;;;;;7.35;4.60;;;;;;;17.79;100.00;100747.27;1749519;82;20893;-44
2022/06/30 02:32:20;;;;;;;5.25;4.62;;;;;;;17.79;100.00;100740.25;1749454;82;20968;-42
2022/06/30 02:34:48;;;;;;;7.58;4.78;;;;;;;17.80;100.00;100744.58;1749472;82;21138;-42
2022/06/30 02:37:15;;;;;;;6.65;5.00;;;;;;;17.83;100.00;100751.93;1749350;81;20885;-43
2022/06/30 02:39:42;;;;;;;8.05;4.78;;;;;;;17.85;100.00;100754.02;1749455;82;20940;-43
2022/06/30 02:42:09;;;;;;;9.58;4.75;;;;;;;17.84;100.00;100748.39;1749529;81;20969;-43
2022/06/30 02:44:37;;;;;;;4.67;4.28;;;;;;;17.84;100.00;100753.62;1746974;81;20995;-43
2022/06/30 02:47:04;;;;;;;8.75;5.15;;;;;;;17.85;100.00;100757.95;1749544;82;21438;-43
2022/06/30 02:49:31;;;;;;;6.22;5.35;;;;;;;17.85;100.00;100752.70;1722367;82;21585;-43
2022/06/30 02:51:58;;;;;;;7.33;5.20;;;;;;;17.83;100.00;100748.00;1749433;82;20984;-43
2022/06/30 02:54:24;;;;;;;5.92;5.28;;;;;;;17.83;100.00;100737.53;1749496;82;20964;-42
2022/06/30 02:56:51;;;;;;;7.50;4.97;;;;;;;17.81;100.00;100729.28;1749376;82;21438;-43
2022/06/30 02:59:18;;;;;;;5.97;5.33;;;;;;;17.81;100.00;100741.51;1749729;82;21953;-43
2022/06/30 03:01:44;;;;;;;9.40;5.47;;;;;;;17.80;100.00;100739.81;1749437;82;20885;-43
2022/06/30 03:04:11;;;;;;;10.75;5.55;;;;;;;17.78;100.00;100739.86;1749475;82;20941;-42
2022/06/30 03:06:38;;;;;;;5.75;5.20;;;;;;;17.75;100.00;100729.53;1749344;82;21019;-43
2022/06/30 03:09:05;;;;;;;12.05;5.60;;;;;;;17.75;100.00;100733.94;1749273;80;21589;-43
2022/06/30 03:11:33;;;;;;;11.40;5.60;;;;;;;17.72;100.00;100737.52;1749517;82;21241;-43
2022/06/30 03:13:59;;;;;;;8.13;5.37;;;;;;;17.73;100.00;100743.62;1749671;82;22446;-44
2022/06/30 03:16:26;;;;;;;6.60;6.00;;;;;;;17.77;100.00;100741.26;1749533;82;21505;-43
2022/06/30 03:18:53;;;;;;;10.03;5.97;;;;;;;17.80;100.00;100745.87;1749467;82;20955;-43
2022/06/30 03:21:20;;;;;;;9.78;5.97;;;;;;;17.82;100.00;100749.75;1749289;82;21364;-43
2022/06/30 03:23:47;;;;;;;6.42;5.78;;;;;;;17.86;100.00;100748.70;1722170;82;22587;-43
2022/06/30 03:26:13;;;;;;;6.42;5.87;;;;;;;17.87;100.00;100735.99;1747387;81;20999;-43
2022/06/30 03:28:40;;;;;;;6.62;6.03;;;;;;;17.93;100.00;100744.04;1746863;82;20979;-43
2022/06/30 03:31:07;;;;;;;9.78;6.08;;;;;;;18.00;100.00;100743.31;1746936;82;21572;-43
2022/06/30 03:33:34;;;;;;;5.92;5.47;;;;;;;18.07;100.00;100736.45;1746753;82;20909;-43
2022/06/30 03:36:02;;;;;;;7.75;6.15;;;;;;;18.13;100.00;100740.55;1746774;81;22066;-43
2022/06/30 03:38:29;;;;;;;10.72;6.75;;;;;;;18.14;100.00;100738.79;1746786;82;20956;-43
2022/06/30 03:40:55;;;;;;;6.92;5.53;;;;;;;18.20;100.00;100738.50;1746586;82;20980;-43
2022/06/30 03:43:22;;;;;;;6.67;6.03;;;;;;;18.24;100.00;100742.67;1746756;82;20905;-44
2022/06/30 03:45:49;;;;;;;6.47;5.97;;;;;;;18.28;100.00;100735.05;1746828;80;20889;-43
2022/06/30 03:48:15;;;;;;;9.80;5.97;;;;;;;18.31;100.00;100735.38;1746840;82;21151;-43
2022/06/30 03:50:42;;;;;;;9.18;5.60;;;;;;;18.32;100.00;100733.16;1746665;82;20869;-43
2022/06/30 03:53:09;;;;;;;7.05;5.97;;;;;;;18.35;100.00;100736.49;1746783;81;20893;-43
2022/06/30 03:55:39;;;;;;;6.03;5.55;;;;;;;18.37;100.00;100733.34;1746942;82;20944;-43
2022/06/30 03:58:07;;;;;;;7.12;6.62;;;;;;;18.43;100.00;100736.59;1746815;81;20980;-43
2022/06/30 04:00:35;;;;;;;12.58;5.85;;;;;;;18.47;100.00;100743.38;1746617;82;21117;-43
2022/06/30 04:03:05;;;;;;;10.05;5.60;;;;;;;18.51;100.00;100737.06;1746675;81;20945;-43
2022/06/30 04:05:32;;;;;;;11.40;6.53;;;;;;;18.56;100.00;100746.03;1746936;82;20884;-43
2022/06/30 04:08:00;;;;;;;9.45;5.55;;;;;;;18.60;100.00;100751.06;1746673;82;20901;-43
2022/06/30 04:10:27;;;;;;;7.08;5.95;;;;;;;18.70;100.00;100749.30;1746744;80;20877;-42
2022/06/30 04:12:54;;;;;;;8.25;5.97;;;;;;;18.80;100.00;100763.66;1746699;82;21202;-43
2022/06/30 04:15:21;;;;;;;13.22;5.67;;;;;;;18.87;100.00;100761.59;1746608;82;20940;-43
2022/06/30 04:17:48;;;;;;;6.00;5.42;;;;;;;18.96;100.00;100759.37;1746619;82;21011;-43
2022/06/30 04:20:18;;;;;;;12.55;5.30;;;;;;;19.03;100.00;100756.03;1725702;82;20858;-43
2022/06/30 04:22:48;;;;;;;11.78;6.17;;;;;;;19.12;100.00;100757.34;1746839;82;21546;-43
2022/06/30 04:25:15;;;;;;;7.25;5.70;;;;;;;19.21;100.00;100762.61;1746739;81;21888;-43
2022/06/30 04:27:49;;;;;;;7.17;5.45;;;;;;;19.29;100.00;100762.20;1746689;82;20837;-43
2022/06/30 04:32:37;;;;;;;7.17;5.87;;;;;;;19.38;100.00;100764.38;1746765;81;20984;-43
2022/06/30 04:32:45;;;;;;;6.15;5.55;;;;;;;19.46;100.00;100772.70;1743634;82;20976;-43
2022/06/30 04:35:12;;;;;;;5.72;5.20;;;;;;;19.52;100.00;100764.50;1746778;81;21431;-43
2022/06/30 04:37:39;;;;;;;6.10;5.60;;;;;;;19.53;100.00;100768.83;1746665;82;21189;-43
2022/06/30 04:42:53;;;;;;;9.33;5.33;;;;;;;19.77;100.00;100771.59;1749833;82;20901;-43
2022/06/30 04:45:20;;;;;;;9.98;5.28;;;;;;;19.88;100.00;100773.17;1746727;82;20953;-43
2022/06/30 04:47:47;;;;;;;7.33;5.70;;;;;;;20.00;100.00;100767.77;1746614;81;20920;-43
2022/06/30 04:50:14;;;;;;;9.00;5.67;;;;;;;20.23;100.00;100769.63;1746832;82;21140;-43
2022/06/30 04:52:41;;;;;;;10.43;5.55;;;;;;;20.56;100.00;100765.24;1746560;82;20948;-43
2022/06/30 04:55:08;;;;;;;8.65;5.17;;;;;;;20.89;100.00;100761.22;1746723;82;20980;-43
2022/06/30 04:57:36;;;;;;;7.60;4.85;;;;;;;21.22;100.00;100764.13;1746736;82;21387;-43
2022/06/30 05:00:05;;;;;;;5.67;4.60;;;;;;;21.57;100.00;100776.16;1746778;82;20948;-43
2022/06/30 05:02:31;;;;;;;6.40;4.80;;;;;;;21.81;100.00;100775.16;1746809;82;21858;-43
2022/06/30 05:04:58;;;;;;;6.22;4.17;;;;;;;22.01;100.00;100774.90;1746710;82;20936;-43
2022/06/30 05:07:25;;;;;;;4.40;3.92;;;;;;;22.29;100.00;100779.28;1746658;81;20838;-44
2022/06/30 05:09:52;;;;;;;4.75;4.35;;;;;;;22.45;100.00;100783.11;1746949;82;21027;-43
2022/06/30 05:12:18;;;;;;;6.35;3.85;;;;;;;22.57;100.00;100789.91;1747083;82;20980;-43
2022/06/30 05:14:46;;;;;;;4.80;3.85;;;;;;;22.69;100.00;100790.42;1746926;82;21139;-43
2022/06/30 05:17:13;;;;;;;5.95;3.95;;;;;;;22.74;99.14;100797.59;1746910;82;20968;-43
2022/06/30 05:19:40;;;;;;;4.50;4.10;;;;;;;22.89;99.10;100794.89;1746835;82;21059;-43
2022/06/30 05:22:07;;;;;;;5.10;4.12;;;;;;;22.91;98.50;100795.17;1746836;82;20936;-43
2022/06/30 05:27:20;;;;;;;8.43;4.25;;;;;;;23.17;96.07;100793.93;1746893;81;21917;-43
2022/06/30 05:29:47;;;;;;;4.20;3.80;;;;;;;23.45;95.15;100789.47;1746884;82;20901;-43
2022/06/30 05:32:14;;;;;;;8.40;3.92;;;;;;;23.83;95.65;100789.11;1746833;82;20925;-43
2022/06/30 05:34:40;;;;;;;3.62;3.42;;;;;;;24.23;95.60;100776.23;1746749;81;20944;-43
2022/06/30 05:37:07;;;;;;;4.45;3.75;;;;;;;24.59;93.06;100769.72;1747295;82;20896;-44
2022/06/30 05:39:33;;;;;;;7.60;3.30;;;;;;;24.92;90.46;100767.75;1746907;82;21251;-43
2022/06/30 05:42:02;;;;;;;2.90;2.62;;;;;;;25.18;84.60;100777.33;1746875;82;20916;-43
2022/06/30 05:44:29;;;;;;;4.80;2.85;;;;;;;25.44;83.52;100768.73;1746901;82;20913;-43
2022/06/30 05:46:56;;;;;;;5.62;3.00;;;;;;;25.66;82.65;100774.56;1746739;82;20959;-43
2022/06/30 05:49:23;;;;;;;5.65;2.92;;;;;;;25.88;80.47;100772.03;1746756;82;20888;-43
2022/06/30 05:51:51;;;;;;;8.60;3.17;;;;;;;26.16;77.83;100778.70;1746878;82;21154;-43
2022/06/30 05:54:18;;;;;;;5.03;3.67;;;;;;;26.29;75.51;100774.58;1746733;82;20983;-43
2022/06/30 05:56:44;;;;;;;5.22;3.42;;;;;;;26.37;75.45;100777.45;1746886;82;20960;-43
2022/06/30 05:59:11;;;;;;;5.28;3.75;;;;;;;26.36;73.15;100774.94;1746872;82;21474;-43
2022/06/30 06:01:38;;;;;;;5.10;3.58;;;;;;;26.24;72.56;100780.73;1746893;82;20850;-42
2022/06/30 06:04:06;;;;;;;6.50;3.98;;;;;;;26.14;74.38;100783.72;1746664;81;21436;-43
2022/06/30 06:06:33;;;;;;;7.20;3.90;;;;;;;26.04;73.46;100789.77;1746589;82;21466;-43
2022/06/30 06:09:00;;;;;;;4.72;4.33;;;;;;;25.83;73.75;100786.50;1746988;82;20967;-43
2022/06/30 06:11:27;;;;;;;6.33;3.62;;;;;;;25.67;75.40;100776.75;1746912;82;20991;-43
2022/06/30 06:13:54;;;;;;;7.10;3.72;;;;;;;25.59;73.81;100786.61;1746747;81;21486;-43
2022/06/30 06:16:22;;;;;;;4.42;4.15;;;;;;;25.51;74.68;100783.69;1746695;81;21051;-44
2022/06/30 06:18:50;;;;;;;4.85;4.00;;;;;;;25.50;75.05;100784.19;1746779;82;20924;-42
2022/06/30 06:21:18;;;;;;;12.15;4.20;;;;;;;25.56;75.54;100777.58;1746656;82;20956;-42
2022/06/30 06:23:44;;;;;;;5.03;4.50;;;;;;;25.62;75.57;100776.23;1746876;82;21067;-43
2022/06/30 06:26:11;;;;;;;8.60;6.10;;;;;;;25.66;76.97;100774.56;1747559;81;20912;-43
2022/06/30 06:31:22;;;;;;;7.73;6.40;;;;;;;25.89;78.55;100772.40;1749637;82;20976;-43
2022/06/30 06:33:49;;;;;;;7.35;6.40;;;;;;;26.01;78.33;100771.91;1749386;82;20945;-43
2022/06/30 06:36:16;;;;;;;7.62;6.00;;;;;;;26.05;78.57;100775.53;1749504;82;20913;-43
2022/06/30 06:38:43;;;;;;;6.45;5.35;;;;;;;26.08;78.05;100779.27;1749458;82;21046;-43
2022/06/30 06:41:10;;;;;;;7.55;5.47;;;;;;;26.11;77.69;100775.54;1749711;82;21186;-43
2022/06/30 06:43:37;;;;;;;5.40;4.95;;;;;;;26.30;78.40;100778.91;1749191;82;20975;-43
2022/06/30 06:46:04;;;;;;;7.97;5.65;;;;;;;26.57;75.33;100784.78;1749515;82;21023;-43
2022/06/30 06:48:31;;;;;;;11.93;5.95;;;;;;;26.76;76.01;100780.13;1749477;82;20924;-43
2022/06/30 06:50:58;;;;;;;5.95;5.42;;;;;;;26.89;72.55;100779.98;1749409;82;20975;-43
2022/06/30 06:53:25;;;;;;;5.60;5.08;;;;;;;26.91;72.58;100774.92;1749468;82;21105;-43
2022/06/30 06:55:52;;;;;;;6.28;5.10;;;;;;;26.98;72.42;100777.06;1749367;82;20917;-43
2022/06/30 06:58:19;;;;;;;11.25;5.40;;;;;;;27.10;74.16;100778.67;1749535;82;20928;-43
2022/06/30 07:00:46;;;;;;;11.03;5.60;;;;;;;27.29;73.72;100777.13;1749361;82;20889;-43
2022/06/30 07:03:14;;;;;;;6.05;5.28;;;;;;;27.37;71.51;100777.31;1749462;82;20901;-43
2022/06/30 07:05:41;;;;;;;7.55;5.00;;;;;;;27.30;71.06;100782.80;1749466;82;21374;-43
2022/06/30 07:08:08;;;;;;;6.45;5.40;;;;;;;27.21;70.87;100779.95;1749421;82;20876;-43
2022/06/30 07:10:35;;;;;;;6.80;5.92;;;;;;;27.19;71.00;100779.72;1749331;82;20865;-43
2022/06/30 07:13:02;;;;;;;14.53;8.23;;;;;;;27.20;71.44;100779.60;1749395;82;20885;-43
2022/06/30 07:15:29;;;;;;;13.88;6.00;;;;;;;27.21;70.87;100780.43;1749406;82;21494;-43
2022/06/30 07:17:55;;;;;;;14.73;7.83;;;;;;;27.32;71.34;100771.55;1749376;82;21043;-43
2022/06/30 07:20:22;;;;;;;9.28;7.28;;;;;;;27.38;69.62;100775.87;1749354;82;20853;-43
2022/06/30 07:22:49;;;;;;;12.03;6.60;;;;;;;27.40;69.87;100772.59;1749283;81;20936;-43
2022/06/30 07:25:16;;;;;;;8.45;5.83;;;;;;;27.48;68.79;100777.73;1749607;82;20980;-43
2022/06/30 07:27:44;;;;;;;8.30;5.60;;;;;;;27.49;68.54;100781.59;1747259;80;20873;-43
2022/06/30 07:30:12;;;;;;;7.37;6.10;;;;;;;27.50;68.81;100781.95;1746659;81;21260;-44
2022/06/30 07:32:39;;;;;;;12.05;5.78;;;;;;;27.51;69.20;100782.34;1746740;82;20968;-43
2022/06/30 07:35:07;;;;;;;5.58;5.08;;;;;;;27.51;68.82;100786.80;1746802;82;21011;-43
2022/06/30 07:37:39;;;;;;;7.33;5.55;;;;;;;27.52;66.53;100786.67;1701968;82;20971;-43
2022/06/30 07:40:08;;;;;;;10.72;5.75;;;;;;;27.38;65.84;100785.17;1746720;81;21435;-44
2022/06/30 07:43:49;;;;;;;6.62;6.00;;;;;;;27.43;66.76;100780.80;1788627;78;26724;-44
2022/06/30 07:46:16;;;;;;;11.55;6.08;;;;;;;27.48;66.46;100780.38;1752169;81;20924;-44
2022/06/30 07:48:44;;;;;;;7.03;6.35;;;;;;;27.61;65.81;100785.52;1747506;81;21824;-45
2022/06/30 07:51:13;;;;;;;13.32;6.10;;;;;;;27.68;64.64;100789.36;1748483;81;20935;-44
2022/06/30 07:53:40;;;;;;;14.05;5.50;;;;;;;27.78;65.73;100798.21;1751025;81;21088;-44
2022/06/30 07:56:06;;;;;;;6.10;4.97;;;;;;;27.81;63.74;100801.94;1750346;81;20956;-44
2022/06/30 07:58:33;;;;;;;5.50;4.78;;;;;;;27.73;62.14;100799.58;1749948;81;20837;-44
2022/06/30 08:01:01;;;;;;;7.00;4.53;;;;;;;27.65;63.99;100805.55;1748730;81;21208;-43
2022/06/30 08:03:30;;;;;;;6.85;4.70;;;;;;;27.58;63.66;100801.73;1747471;81;20928;-44
2022/06/30 08:05:58;;;;;;;10.72;5.22;;;;;;;27.61;62.05;100808.98;1745709;81;21497;-43
2022/06/30 08:08:26;;;;;;;7.67;4.85;;;;;;;27.78;60.75;100810.17;1752239;81;21022;-43
2022/06/30 08:10:53;;;;;;;7.45;4.87;;;;;;;27.93;62.93;100805.34;1747855;81;21023;-42
2022/06/30 08:13:21;;;;;;;11.65;4.33;;;;;;;28.10;62.07;100804.37;1748066;80;21132;-43
2022/06/30 08:15:52;;;;;;;9.35;4.80;;;;;;;28.23;60.39;100800.99;1749697;81;20967;-43
2022/06/30 08:18:19;;;;;;;15.23;6.08;;;;;;;28.30;61.96;100804.47;1747325;81;21529;-43
2022/06/30 08:20:46;;;;;;;8.73;5.58;;;;;;;28.39;59.15;100793.81;1749849;81;20943;-43
2022/06/30 08:23:13;;;;;;;9.98;6.45;;;;;;;28.44;57.40;100793.92;1746574;81;20927;-44
2022/06/30 08:25:40;;;;;;;10.58;5.45;;;;;;;28.55;60.00;100792.45;1748652;81;21143;-43
2022/06/30 08:28:08;;;;;;;7.87;5.05;;;;;;;28.62;55.59;100794.91;1750744;81;20915;-43
2022/06/30 08:30:36;;;;;;;14.15;4.85;;;;;;;28.44;53.68;100787.27;1748189;81;20967;-44
2022/06/30 08:33:03;;;;;;;12.18;5.50;;;;;;;28.18;53.25;100795.75;1746950;81;20994;-44
2022/06/30 08:35:31;;;;;;;8.35;4.90;;;;;;;27.95;52.53;100790.09;1713364;81;21039;-44
2022/06/30 08:37:59;;;;;;;10.00;5.00;;;;;;;27.78;54.63;100781.41;1747145;81;21275;-44
2022/06/30 08:43:12;;;;;;;13.00;5.30;;;;;;;27.48;56.76;100787.03;1757974;80;20931;-43
2022/06/30 08:45:40;;;;;;;8.15;4.75;;;;;;;27.34;56.76;100781.56;1771185;80;20956;-44
2022/06/30 08:48:09;;;;;;;10.90;4.95;;;;;;;27.28;57.27;100776.78;1774545;80;21140;-43
2022/06/30 08:50:40;;;;;;;13.25;5.22;;;;;;;27.30;58.93;100782.80;1775661;80;21390;-44
2022/06/30 08:53:09;;;;;;;8.18;5.03;;;;;;;27.43;55.31;100775.48;1776012;80;21030;-44
2022/06/30 08:55:38;;;;;;;7.85;4.33;;;;;;;27.70;55.50;100776.78;1776220;80;21066;-44
2022/06/30 08:58:09;;;;;;;9.85;4.47;;;;;;;28.01;53.83;100780.74;1778445;80;21018;-44
2022/06/30 09:00:38;;;;;;;6.50;4.25;;;;;;;28.21;54.68;100773.69;1771182;80;21572;-45
2022/06/30 09:03:06;;;;;;;8.38;3.90;;;;;;;28.37;53.14;100781.64;1773191;80;21207;-44
2022/06/30 09:05:33;;;;;;;12.78;3.55;;;;;;;28.50;50.86;100782.21;1774831;80;20927;-44
2022/06/30 09:08:01;;;;;;;10.95;3.47;;;;;;;28.63;49.05;100787.78;1774746;80;20892;-45
2022/06/30 09:10:28;;;;;;;14.98;3.42;;;;;;;28.79;51.33;100792.58;1775391;80;21448;-43
2022/06/30 09:13:02;;;;;;;13.48;4.03;;;;;;;29.03;51.25;100790.81;1774880;80;21030;-44
2022/06/30 09:15:36;;;;;;;11.68;3.47;;;;;;;29.29;49.20;100789.39;1775108;80;21296;-44
2022/06/30 09:18:06;;;;;;;14.40;4.70;;;;;;;29.46;48.60;100790.02;1777624;80;20928;-44
2022/06/30 09:20:37;;;;;;;13.88;4.47;;;;;;;29.44;49.63;100788.00;1751601;80;20908;-44
2022/06/30 09:23:31;;;;;;;12.43;4.87;;;;;;;29.43;47.87;100785.47;1773846;80;21429;-45
2022/06/30 09:26:01;;;;;;;22.67;5.03;;;;;;;29.44;47.49;100777.34;1778309;80;21093;-44
2022/06/30 09:28:54;;;;;;;6.60;3.95;;;;;;;29.48;48.97;100785.86;1776291;80;21877;-44
2022/06/30 09:31:38;;;;;;;14.63;4.47;;;;;;;29.67;46.87;100779.63;1782568;80;20986;-44
2022/06/30 09:34:19;;;;;;;17.50;4.22;;;;;;;29.89;48.93;100784.24;1779219;80;20991;-44
2022/06/30 09:36:49;;;;;;;17.23;4.37;;;;;;;30.09;46.80;100779.20;1770200;80;20964;-43
2022/06/30 09:39:17;;;;;;;35.60;5.87;;;;;;;30.35;45.95;100781.15;1778595;80;21018;-43
2022/06/30 09:41:44;;;;;;;14.20;4.17;;;;;;;30.39;44.60;100779.85;1777428;80;21166;-44
2022/06/30 09:44:23;;;;;;;10.30;4.05;;;;;;;30.52;44.61;100778.66;1776269;80;21030;-44
2022/06/30 09:47:08;;;;;;;14.58;4.08;;;;;;;30.60;44.25;100777.39;1774334;80;20936;-45
2022/06/30 09:49:47;;;;;;;18.23;4.08;;;;;;;30.70;44.88;100776.53;1777512;80;21041;-44
2022/06/30 09:52:26;;;;;;;10.50;3.85;;;;;;;30.66;41.81;100771.47;1779838;80;21038;-43
2022/06/30 09:55:05;;;;;;;7.08;3.27;;;;;;;30.76;45.07;100778.58;1779957;80;21257;-44
2022/06/30 09:57:40;;;;;;;10.93;3.67;;;;;;;30.93;43.64;100773.70;1771611;80;20999;-44
2022/06/30 10:00:16;;;;;;;8.70;4.10;;;;;;;30.99;45.77;100771.42;1774845;80;21011;-44
2022/06/30 10:02:52;;;;;;;15.70;4.45;;;;;;;31.03;41.69;100770.94;1750553;80;21524;-44
2022/06/30 10:05:20;;;;;;;11.33;3.45;;;;;;;30.98;42.97;100769.23;1769633;80;21045;-43
2022/06/30 10:07:50;;;;;;;8.65;3.02;;;;;;;31.16;44.34;100769.70;1772691;80;21099;-44
2022/06/30 10:10:19;;;;;;;8.65;3.30;;;;;;;31.23;42.94;100772.97;1771095;80;21062;-43
2022/06/30 10:12:48;;;;;;;9.25;3.22;;;;;;;31.40;42.86;100774.39;1774061;80;20877;-43
2022/06/30 10:15:18;;;;;;;22.35;4.22;;;;;;;31.57;43.45;100765.97;1772740;80;20987;-43
2022/06/30 10:17:50;;;;;;;15.58;3.30;;;;;;;31.65;42.97;100770.52;1780405;80;21599;-43
2022/06/30 10:20:20;;;;;;;19.37;4.40;;;;;;;31.77;39.60;100769.29;1778675;80;21926;-44
2022/06/30 10:22:48;;;;;;;11.83;3.47;;;;;;;31.74;43.80;100760.22;1775973;80;22078;-44
2022/06/30 10:25:16;;;;;;;13.65;3.20;;;;;;;31.78;42.40;100762.09;1776188;80;20987;-44
2022/06/30 10:27:45;;;;;;;11.00;2.95;;;;;;;31.82;42.58;100759.42;1779448;80;21509;-43
2022/06/30 10:30:15;;;;;;;6.92;3.05;;;;;;;31.98;41.09;100761.34;1777117;80;20963;-44
2022/06/30 10:33:10;;;;;;;8.13;3.47;;;;;;;32.24;39.67;100761.23;1774570;80;21238;-44
2022/06/30 10:35:48;;;;;;;12.82;3.22;;;;;;;32.63;40.89;100756.32;1782055;80;20935;-43
2022/06/30 10:38:29;;;;;;;9.00;3.00;;;;;;;33.02;39.99;100747.61;1777887;80;20983;-44
2022/06/30 10:41:11;;;;;;;8.10;2.98;;;;;;;33.09;38.11;100751.31;1776931;80;21026;-44
2022/06/30 10:44:08;;;;;;;6.75;3.10;;;;;;;32.83;39.11;100747.44;1777486;80;20979;-44
2022/06/30 10:46:56;;;;;;;7.20;3.70;;;;;;;32.63;38.62;100741.59;1778472;80;21210;-44
2022/06/30 10:49:24;;;;;;;4.87;2.40;;;;;;;32.45;41.39;100742.57;1772634;80;20963;-44
2022/06/30 10:51:57;;;;;;;6.25;3.12;;;;;;;32.62;36.71;100750.62;1775532;80;21518;-44
2022/06/30 10:54:32;;;;;;;6.17;2.98;;;;;;;32.56;37.91;100747.25;1775400;80;21082;-44
2022/06/30 10:57:01;;;;;;;4.60;2.37;;;;;;;32.37;37.77;100743.39;1779451;80;20990;-44
2022/06/30 10:59:37;;;;;;;3.37;2.42;;;;;;;31.88;39.85;100753.94;1747986;80;21496;-44
2022/06/30 11:02:22;;;;;;;11.57;5.55;;;;;;;31.40;38.92;100757.02;1774115;80;21011;-43
2022/06/30 11:04:52;;;;;;;3.12;2.77;;;;;;;30.98;39.61;100751.05;1783397;80;20990;-43
2022/06/30 11:07:24;;;;;;;6.97;2.75;;;;;;;30.92;41.41;100749.83;1750477;80;21326;-44
2022/06/30 11:09:59;;;;;;;4.75;2.60;;;;;;;31.01;40.15;100752.89;1775720;80;21037;-43
2022/06/30 11:12:37;;;;;;;;;;;;;;;30.94;39.08;100741.98;1773013;80;21380;-43
2022/06/30 11:15:06;;;;;;;5.40;2.72;;;;;;;30.93;39.91;100745.64;1777940;80;20500;-43
2022/06/30 11:17:37;;;;;;;5.08;2.60;;;;;;;30.91;43.46;100754.31;1780720;80;20943;-43
2022/06/30 11:20:13;;;;;;;4.58;2.77;;;;;;;30.86;41.75;100745.93;1774712;80;20904;-43
2022/06/30 11:22:42;;;;;;;8.48;2.90;;;;;;;30.84;43.75;100741.75;1775543;80;20861;-44
2022/06/30 11:25:11;;;;;;;6.78;2.70;;;;;;;31.05;41.58;100746.75;1781047;80;21935;-43
2022/06/30 11:27:38;;;;;;;5.37;2.70;;;;;;;31.48;42.51;100739.70;1771673;80;20885;-43
2022/06/30 11:30:09;;;;;;;8.70;2.55;;;;;;;31.89;40.13;100739.56;1774147;80;21023;-43
2022/06/30 11:32:38;;;;;;;3.37;2.50;;;;;;;31.98;39.05;100734.59;1774358;80;21077;-43
2022/06/30 11:35:08;;;;;;;3.85;2.50;;;;;;;31.78;38.79;100750.05;1776896;80;21035;-44
2022/06/30 11:37:37;;;;;;;7.22;2.75;;;;;;;31.12;39.38;100734.43;1779196;80;21362;-44
2022/06/30 11:40:11;;;;;;;10.60;2.85;;;;;;;30.72;40.97;100739.82;1779625;79;21101;-43
2022/06/30 11:42:40;;;;;;;6.05;2.80;;;;;;;30.56;40.95;100737.79;1752001;80;21002;-43
2022/06/30 11:45:19;;;;;;;5.78;2.92;;;;;;;30.44;40.32;100734.50;1778127;80;21005;-44
2022/06/30 11:48:03;;;;;;;4.33;3.00;;;;;;;30.25;41.94;100734.50;1779178;80;20986;-43